createdAt,value
2023-04-21T00:00:15.861Z,99.90
2023-04-21T00:02:45.283Z,99.90
2023-04-21T00:05:14.454Z,99.90
2023-04-21T00:07:42.723Z,99.90
2023-04-21T00:10:12.090Z,99.90
2023-04-21T00:12:41.338Z,99.90
2023-04-21T00:15:10.735Z,99.90
2023-04-21T00:17:40.675Z,99.90
2023-04-21T00:20:11.106Z,99.90
2023-04-21T00:22:39.544Z,99.90
2023-04-21T00:25:08.531Z,99.90
2023-04-21T00:27:36.831Z,99.90
2023-04-21T00:30:05.565Z,99.90
2023-04-21T00:32:35.173Z,99.90
2023-04-21T00:35:04.963Z,99.90
2023-04-21T00:37:33.359Z,99.90
2023-04-21T00:40:01.667Z,99.90
2023-04-21T00:42:29.833Z,99.90
2023-04-21T00:44:58.017Z,99.90
2023-04-21T00:47:26.766Z,99.90
2023-04-21T00:49:55.276Z,99.90
2023-04-21T00:52:25.237Z,99.90
2023-04-21T00:54:53.994Z,99.90
2023-04-21T00:57:22.911Z,99.90
2023-04-21T00:59:52.048Z,99.90
2023-04-21T01:02:20.932Z,99.90
2023-04-21T01:04:49.717Z,99.90
2023-04-21T01:07:18.420Z,99.90
2023-04-21T01:09:47.918Z,99.90
2023-04-21T01:12:16.337Z,99.90
2023-04-21T01:14:44.442Z,99.90
2023-04-21T01:17:12.543Z,99.90
2023-04-21T01:19:42.960Z,99.90
2023-04-21T01:22:15.346Z,99.90
2023-04-21T01:24:44.830Z,99.90
2023-04-21T01:27:13.852Z,99.90
2023-04-21T01:29:43.241Z,99.90
2023-04-21T01:32:14.130Z,99.90
2023-04-21T01:34:45.104Z,99.90
2023-04-21T01:37:16.802Z,99.90
2023-04-21T01:39:48.365Z,99.90
2023-04-21T01:42:16.481Z,99.90
2023-04-21T01:44:44.955Z,99.90
2023-04-21T01:47:13.053Z,99.90
2023-04-21T01:49:41.429Z,99.90
2023-04-21T01:52:09.596Z,99.90
2023-04-21T01:54:39.648Z,99.90
2023-04-21T01:57:07.924Z,99.90
2023-04-21T01:59:36.201Z,99.90
2023-04-21T02:02:05.102Z,99.90
2023-04-21T02:04:33.399Z,99.90
2023-04-21T02:07:02.176Z,99.90
2023-04-21T02:09:30.632Z,99.90
2023-04-21T02:12:00.363Z,99.90
2023-04-21T02:14:28.587Z,99.90
2023-04-21T02:16:57.140Z,99.90
2023-04-21T02:19:25.663Z,99.90
2023-04-21T02:21:54.038Z,99.90
2023-04-21T02:24:22.187Z,99.90
2023-04-21T02:26:50.396Z,99.90
2023-04-21T02:29:19.973Z,99.90
2023-04-21T02:32:00.682Z,99.90
2023-04-21T02:34:29.613Z,99.90
2023-04-21T02:36:57.754Z,99.90
2023-04-21T02:39:26.317Z,99.90
2023-04-21T02:41:54.526Z,99.90
2023-04-21T02:44:24.298Z,99.90
2023-04-21T02:46:52.564Z,99.90
2023-04-21T02:49:21.335Z,99.90
2023-04-21T02:51:49.655Z,99.90
2023-04-21T02:54:17.929Z,99.90
2023-04-21T02:56:46.527Z,99.90
2023-04-21T02:59:16.871Z,99.90
2023-04-21T03:01:47.926Z,99.90
2023-04-21T03:04:16.265Z,99.90
2023-04-21T03:06:44.486Z,99.90
2023-04-21T03:09:12.702Z,99.90
2023-04-21T03:11:41.165Z,99.90
2023-04-21T03:14:09.263Z,99.90
2023-04-21T03:16:37.420Z,99.90
2023-04-21T03:19:06.958Z,99.90
2023-04-21T03:21:38.559Z,99.90
2023-04-21T03:24:07.667Z,99.90
2023-04-21T03:26:35.829Z,99.90
2023-04-21T03:29:04.327Z,99.90
2023-04-21T03:31:32.627Z,99.90
2023-04-21T03:34:00.752Z,99.90
2023-04-21T03:36:31.268Z,99.90
2023-04-21T03:39:12.730Z,99.90
2023-04-21T03:41:48.168Z,99.90
2023-04-21T03:44:16.402Z,99.90
2023-04-21T03:46:44.504Z,99.90
2023-04-21T03:49:12.888Z,99.90
2023-04-21T03:51:42.669Z,99.90
2023-04-21T03:54:10.773Z,99.90
2023-04-21T03:56:38.913Z,99.90
2023-04-21T03:59:07.243Z,99.90
2023-04-21T04:01:36.012Z,99.90
2023-04-21T04:04:04.826Z,99.90
2023-04-21T04:06:33.328Z,99.90
2023-04-21T04:09:04.600Z,99.90
2023-04-21T04:11:33.021Z,99.90
2023-04-21T04:14:01.618Z,99.90
2023-04-21T04:16:30.033Z,99.90
2023-04-21T04:18:58.293Z,99.90
2023-04-21T04:21:27.839Z,99.90
2023-04-21T04:23:56.002Z,99.90
2023-04-21T04:26:26.046Z,99.90
2023-04-21T04:28:56.773Z,99.90
2023-04-21T04:31:25.922Z,99.90
2023-04-21T04:33:55.472Z,99.90
2023-04-21T04:36:24.536Z,99.90
2023-04-21T04:38:52.770Z,99.90
2023-04-21T04:41:21.302Z,99.90
2023-04-21T04:43:51.199Z,99.90
2023-04-21T04:46:20.890Z,99.90
2023-04-21T04:48:49.287Z,99.90
2023-04-21T04:51:17.937Z,99.90
2023-04-21T04:53:46.044Z,99.90
2023-04-21T04:56:14.329Z,99.90
2023-04-21T04:58:42.722Z,99.90
2023-04-21T05:01:16.969Z,99.90
2023-04-21T05:03:46.262Z,99.90
2023-04-21T05:06:15.010Z,99.90
2023-04-21T05:08:43.118Z,99.90
2023-04-21T05:11:11.498Z,99.90
2023-04-21T05:13:40.231Z,99.90
2023-04-21T05:16:11.823Z,99.90
2023-04-21T05:18:41.342Z,99.90
2023-04-21T05:21:09.536Z,99.90
2023-04-21T05:23:38.076Z,99.90
2023-04-21T05:26:06.335Z,99.90
2023-04-21T05:28:36.233Z,99.90
2023-04-21T05:31:04.711Z,99.90
2023-04-21T05:33:32.828Z,99.90
2023-04-21T05:36:02.688Z,99.90
2023-04-21T05:38:30.976Z,99.90
2023-04-21T05:40:59.089Z,99.90
2023-04-21T05:43:27.235Z,99.90
2023-04-21T05:45:55.412Z,99.90
2023-04-21T05:48:24.540Z,99.90
2023-04-21T05:50:52.698Z,99.90
2023-04-21T05:53:23.500Z,99.90
2023-04-21T05:55:52.174Z,99.90
2023-04-21T05:58:20.247Z,99.90
2023-04-21T06:00:49.234Z,99.90
2023-04-21T06:03:17.598Z,99.90
2023-04-21T06:05:46.385Z,99.90
2023-04-21T06:08:14.637Z,99.90
2023-04-21T06:10:44.422Z,99.90
2023-04-21T06:13:12.548Z,99.90
2023-04-21T06:15:40.641Z,99.90
2023-04-21T06:18:08.867Z,99.90
2023-04-21T06:20:36.959Z,99.90
2023-04-21T06:23:05.333Z,99.90
2023-04-21T06:25:33.994Z,99.90
2023-04-21T06:28:03.807Z,99.90
2023-04-21T06:30:31.921Z,99.90
2023-04-21T06:33:00.018Z,99.90
2023-04-21T06:35:28.409Z,99.90
2023-04-21T06:37:56.586Z,99.90
2023-04-21T06:40:24.977Z,99.90
2023-04-21T06:42:53.051Z,99.90
2023-04-21T06:45:23.061Z,99.90
2023-04-21T06:47:51.219Z,99.90
2023-04-21T06:50:19.768Z,99.90
2023-04-21T06:52:48.146Z,99.90
2023-04-21T06:55:16.595Z,99.90
2023-04-21T06:57:44.701Z,99.90
2023-04-21T07:00:13.976Z,99.90
2023-04-21T07:02:43.550Z,99.90
2023-04-21T07:05:11.699Z,99.90
2023-04-21T07:07:39.988Z,99.90
2023-04-21T07:10:09.216Z,99.90
2023-04-21T07:12:37.376Z,99.90
2023-04-21T07:15:06.416Z,99.90
2023-04-21T07:17:34.751Z,99.90
2023-04-21T07:20:04.403Z,99.90
2023-04-21T07:22:32.498Z,99.90
2023-04-21T07:25:00.589Z,99.90
2023-04-21T07:27:28.740Z,99.90
2023-04-21T07:29:57.132Z,99.90
2023-04-21T07:32:25.395Z,99.90
2023-04-21T07:34:53.523Z,99.90
2023-04-21T07:37:24.513Z,99.90
2023-04-21T07:39:53.259Z,99.90
2023-04-21T07:42:21.960Z,99.90
2023-04-21T07:44:50.053Z,99.90
2023-04-21T07:47:18.422Z,99.90
2023-04-21T07:49:46.746Z,99.90
2023-04-21T07:52:14.846Z,99.90
2023-04-21T07:54:44.692Z,99.90
2023-04-21T07:57:13.266Z,99.90
2023-04-21T07:59:41.347Z,99.90
2023-04-21T08:02:10.304Z,99.90
2023-04-21T08:04:38.852Z,99.90
2023-04-21T08:07:07.808Z,99.90
2023-04-21T08:09:35.989Z,99.90
2023-04-21T08:12:05.992Z,99.90
2023-04-21T08:14:34.093Z,99.90
2023-04-21T08:17:02.245Z,99.90
2023-04-21T08:19:30.384Z,99.90
2023-04-21T08:21:58.710Z,99.90
2023-04-21T08:24:26.870Z,99.90
2023-04-21T08:26:54.983Z,99.90
2023-04-21T08:29:24.715Z,99.90
2023-04-21T08:31:52.962Z,99.90
2023-04-21T08:34:22.570Z,99.90
2023-04-21T08:36:52.438Z,99.90
2023-04-21T08:39:20.717Z,99.90
2023-04-21T08:41:49.444Z,99.90
2023-04-21T08:44:19.388Z,99.90
2023-04-21T08:46:50.756Z,99.90
2023-04-21T08:49:22.052Z,99.90
2023-04-21T08:51:50.630Z,99.90
2023-04-21T08:54:18.745Z,99.90
2023-04-21T08:56:48.848Z,99.90
2023-04-21T08:59:17.014Z,99.90
2023-04-21T09:02:10.186Z,99.90
2023-04-21T09:04:41.186Z,99.90
2023-04-21T09:07:09.722Z,99.90
2023-04-21T09:09:54.109Z,99.90
2023-04-21T09:12:22.552Z,99.90
2023-04-21T09:14:50.663Z,99.90
2023-04-21T09:17:28.763Z,99.90
2023-04-21T09:19:56.938Z,99.90
2023-04-21T09:22:29.568Z,99.90
2023-04-21T09:25:00.225Z,99.70
2023-04-21T09:27:29.452Z,99.40
2023-04-21T09:30:04.134Z,99.90
2023-04-21T09:32:37.796Z,99.90
2023-04-21T09:35:07.033Z,99.90
2023-04-21T09:37:35.512Z,98.70
2023-04-21T09:40:05.351Z,98.30
2023-04-21T09:42:39.242Z,96.50
2023-04-21T09:45:29.111Z,98.20
2023-04-21T09:48:02.529Z,95.20
2023-04-21T09:53:07.385Z,95.40
2023-04-21T09:55:36.966Z,94.20
2023-04-21T09:58:09.697Z,93.40
2023-04-21T10:00:40.126Z,94.60
2023-04-21T10:03:12.469Z,93.30
2023-04-21T10:05:42.877Z,93.20
2023-04-21T10:08:13.021Z,93.80
2023-04-21T10:10:41.470Z,92.40
2023-04-21T10:13:15.956Z,92.00
2023-04-21T10:15:44.167Z,92.30
2023-04-21T10:18:18.684Z,91.80
2023-04-21T10:20:57.300Z,92.00
2023-04-21T10:23:30.248Z,90.40
2023-04-21T10:26:07.243Z,90.00
2023-04-21T10:28:46.144Z,89.50
2023-04-21T10:31:22.383Z,90.60
2023-04-21T10:34:29.520Z,90.10
2023-04-21T10:37:17.498Z,90.30
2023-04-21T10:39:55.225Z,87.30
2023-04-21T10:42:28.731Z,89.20
2023-04-21T10:45:08.740Z,89.20
2023-04-21T10:47:43.200Z,86.80
2023-04-21T10:50:23.208Z,90.10
2023-04-21T10:52:58.147Z,84.00
2023-04-21T10:55:31.097Z,84.90
2023-04-21T10:58:02.441Z,84.40
2023-04-21T11:00:30.626Z,84.90
2023-04-21T11:03:01.981Z,84.20
2023-04-21T11:05:32.461Z,84.70
2023-04-21T11:08:06.353Z,84.90
2023-04-21T11:10:44.624Z,83.60
2023-04-21T11:13:12.723Z,83.10
2023-04-21T11:15:41.475Z,82.10
2023-04-21T11:18:10.178Z,78.10
2023-04-21T11:20:42.417Z,79.00
2023-04-21T11:23:18.411Z,79.40
2023-04-21T11:25:49.460Z,77.80
2023-04-21T11:28:23.420Z,79.40
2023-04-21T11:30:51.657Z,80.30
2023-04-21T11:33:20.266Z,77.90
2023-04-21T11:35:49.682Z,76.70
2023-04-21T11:38:19.195Z,78.10
2023-04-21T11:40:48.450Z,80.60
2023-04-21T11:43:16.802Z,77.80
2023-04-21T11:45:44.972Z,77.10
2023-04-21T11:48:17.437Z,74.00
2023-04-21T11:50:49.310Z,74.90
2023-04-21T11:53:20.192Z,72.50
2023-04-21T11:55:48.431Z,76.90
2023-04-21T11:58:18.061Z,72.90
2023-04-21T12:00:47.097Z,72.80
2023-04-21T12:03:15.634Z,75.30
2023-04-21T12:05:43.929Z,75.60
2023-04-21T12:08:16.490Z,77.30
2023-04-21T12:10:50.543Z,75.60
2023-04-21T12:13:24.116Z,75.70
2023-04-21T12:15:52.326Z,76.40
2023-04-21T12:18:20.592Z,75.90
2023-04-21T12:20:52.889Z,77.40
2023-04-21T12:23:21.349Z,76.70
2023-04-21T12:25:51.709Z,76.10
2023-04-21T12:28:19.826Z,77.20
2023-04-21T12:30:48.009Z,77.00
2023-04-21T12:33:16.218Z,77.40
2023-04-21T12:35:44.681Z,77.80
2023-04-21T12:38:13.148Z,77.70
2023-04-21T12:40:41.450Z,76.50
2023-04-21T12:43:11.216Z,76.00
2023-04-21T12:45:39.348Z,75.50
2023-04-21T12:48:07.629Z,77.20
2023-04-21T12:50:35.770Z,76.90
2023-04-21T12:53:04.041Z,77.20
2023-04-21T12:55:32.270Z,75.30
2023-04-21T12:58:00.489Z,74.70
2023-04-21T13:00:30.213Z,75.40
2023-04-21T13:02:58.493Z,74.30
2023-04-21T13:05:26.759Z,76.00
2023-04-21T13:07:55.726Z,73.20
2023-04-21T13:10:25.210Z,72.60
2023-04-21T13:12:53.386Z,72.70
2023-04-21T13:15:21.619Z,71.80
2023-04-21T13:17:51.093Z,72.50
2023-04-21T13:20:20.653Z,73.40
2023-04-21T13:22:49.000Z,73.00
2023-04-21T13:25:17.307Z,72.90
2023-04-21T13:27:46.841Z,71.70
2023-04-21T13:30:16.383Z,72.80
2023-04-21T13:32:45.484Z,70.70
2023-04-21T13:35:15.017Z,70.30
2023-04-21T13:37:43.212Z,71.80
2023-04-21T13:40:12.469Z,71.10
2023-04-21T13:42:40.979Z,72.40
2023-04-21T13:45:10.391Z,71.20
2023-04-21T13:47:38.825Z,71.30
2023-04-21T13:50:09.278Z,71.60
2023-04-21T13:52:38.882Z,72.60
2023-04-21T13:55:07.874Z,72.50
2023-04-21T13:57:36.371Z,71.10
2023-04-21T14:00:06.707Z,70.90
2023-04-21T14:02:35.092Z,71.30
2023-04-21T14:05:03.907Z,71.00
2023-04-21T14:07:32.569Z,71.80
2023-04-21T14:10:02.891Z,71.80
2023-04-21T14:12:31.094Z,72.70
2023-04-21T14:14:59.551Z,72.80
2023-04-21T14:17:28.165Z,73.60
2023-04-21T14:19:56.349Z,72.60
2023-04-21T14:22:24.892Z,73.60
2023-04-21T14:24:53.233Z,72.10
2023-04-21T14:27:22.864Z,72.40
2023-04-21T14:29:51.088Z,73.40
2023-04-21T14:32:20.712Z,71.70
2023-04-21T14:34:53.282Z,71.00
2023-04-21T14:37:22.696Z,71.30
2023-04-21T14:39:51.170Z,70.40
2023-04-21T14:42:20.250Z,70.20
2023-04-21T14:44:49.809Z,70.00
2023-04-21T14:47:18.073Z,70.50
2023-04-21T14:49:46.375Z,70.70
2023-04-21T14:52:14.902Z,69.60
2023-04-21T14:54:43.310Z,70.50
2023-04-21T14:57:20.511Z,69.80
2023-04-21T14:59:51.958Z,69.80
2023-04-21T15:02:21.469Z,71.60
2023-04-21T15:04:50.889Z,71.90
2023-04-21T15:07:23.923Z,72.80
2023-04-21T15:09:53.693Z,72.90
2023-04-21T15:12:22.181Z,73.30
2023-04-21T15:14:51.692Z,72.10
2023-04-21T15:17:19.916Z,72.30
2023-04-21T15:19:48.017Z,71.60
2023-04-21T15:22:16.306Z,71.60
2023-04-21T15:24:44.460Z,71.80
2023-04-21T15:27:12.576Z,72.00
2023-04-21T15:29:40.729Z,70.90
2023-04-21T15:32:11.283Z,70.90
2023-04-21T15:34:39.672Z,70.90
2023-04-21T15:37:07.846Z,70.20
2023-04-21T15:39:36.259Z,70.60
2023-04-21T15:42:05.066Z,71.20
2023-04-21T15:44:34.073Z,71.40
2023-04-21T15:47:02.796Z,71.70
2023-04-21T15:49:32.615Z,70.90
2023-04-21T15:52:00.881Z,70.10
2023-04-21T15:54:29.050Z,69.60
2023-04-21T15:56:57.652Z,70.10
2023-04-21T15:59:26.405Z,71.00
2023-04-21T16:01:54.818Z,69.80
2023-04-21T16:04:23.574Z,70.20
2023-04-21T16:06:53.605Z,70.40
2023-04-21T16:09:22.250Z,70.10
2023-04-21T16:11:51.795Z,69.60
2023-04-21T16:14:20.184Z,70.00
2023-04-21T16:16:48.428Z,70.60
2023-04-21T16:19:16.672Z,71.10
2023-04-21T16:21:45.247Z,71.20
2023-04-21T16:24:14.844Z,71.60
2023-04-21T16:26:42.948Z,71.50
2023-04-21T16:29:11.409Z,72.40
2023-04-21T16:31:39.573Z,72.10
2023-04-21T16:34:08.407Z,71.80
2023-04-21T16:36:37.107Z,72.80
2023-04-21T16:39:05.757Z,71.80
2023-04-21T16:41:35.558Z,71.50
2023-04-21T16:44:03.812Z,71.80
2023-04-21T16:46:32.057Z,71.10
2023-04-21T16:49:00.382Z,70.10
2023-04-21T16:51:28.813Z,70.40
2023-04-21T16:53:57.419Z,71.00
2023-04-21T16:56:25.588Z,71.10
2023-04-21T16:58:55.072Z,73.10
2023-04-21T17:01:23.265Z,73.90
2023-04-21T17:03:51.474Z,75.30
2023-04-21T17:06:21.675Z,76.30
2023-04-21T17:08:49.978Z,76.10
2023-04-21T17:11:18.133Z,76.10
2023-04-21T17:13:46.282Z,77.00
2023-04-21T17:16:15.908Z,78.50
2023-04-21T17:18:44.018Z,78.40
2023-04-21T17:21:12.894Z,78.90
2023-04-21T17:23:41.071Z,79.00
2023-04-21T17:26:11.600Z,78.50
2023-04-21T17:28:41.475Z,79.70
2023-04-21T17:31:15.934Z,78.60
2023-04-21T17:33:46.804Z,78.40
2023-04-21T17:36:16.885Z,77.60
2023-04-21T17:38:45.595Z,77.90
2023-04-21T17:41:13.792Z,78.20
2023-04-21T17:43:41.896Z,79.40
2023-04-21T17:46:10.103Z,79.10
2023-04-21T17:48:39.393Z,79.20
2023-04-21T17:51:09.726Z,79.80
2023-04-21T17:53:38.033Z,79.70
2023-04-21T17:56:06.225Z,80.50
2023-04-21T17:58:34.970Z,80.40
2023-04-21T18:01:03.099Z,80.60
2023-04-21T18:03:31.322Z,80.50
2023-04-21T18:05:59.779Z,80.80
2023-04-21T18:08:29.564Z,81.50
2023-04-21T18:10:57.920Z,82.00
2023-04-21T18:13:26.098Z,81.80
2023-04-21T18:15:54.222Z,81.20
2023-04-21T18:18:22.352Z,81.80
2023-04-21T18:20:50.451Z,82.40
2023-04-21T18:23:18.576Z,82.40
2023-04-21T18:25:48.048Z,82.60
2023-04-21T18:28:16.180Z,82.80
2023-04-21T18:30:44.421Z,83.10
2023-04-21T18:33:12.694Z,83.50
2023-04-21T18:35:42.377Z,83.80
2023-04-21T18:38:11.653Z,83.90
2023-04-21T18:40:40.756Z,84.20
2023-04-21T18:43:11.083Z,84.50
2023-04-21T18:45:39.731Z,84.80
2023-04-21T18:48:08.119Z,85.00
2023-04-21T18:50:39.928Z,85.20
2023-04-21T18:53:09.550Z,85.60
2023-04-21T18:55:38.007Z,85.90
2023-04-21T18:58:06.229Z,86.10
2023-04-21T19:00:38.923Z,86.40
2023-04-21T19:03:07.695Z,87.50
2023-04-21T19:05:37.324Z,87.10
2023-04-21T19:08:05.689Z,87.50
2023-04-21T19:10:35.530Z,88.00
2023-04-21T19:13:03.635Z,88.20
2023-04-21T19:15:31.795Z,88.60
2023-04-21T19:18:01.679Z,89.20
2023-04-21T19:20:30.848Z,89.80
2023-04-21T19:22:59.027Z,90.00
2023-04-21T19:25:27.125Z,90.50
2023-04-21T19:27:55.287Z,90.60
2023-04-21T19:30:23.685Z,90.60
2023-04-21T19:32:51.844Z,90.70
2023-04-21T19:35:21.561Z,90.70
2023-04-21T19:37:49.667Z,90.70
2023-04-21T19:40:17.886Z,90.80
2023-04-21T19:42:46.055Z,90.90
2023-04-21T19:45:14.208Z,91.10
2023-04-21T19:47:42.320Z,91.00
2023-04-21T19:50:11.845Z,91.30
2023-04-21T19:52:41.855Z,91.40
2023-04-21T19:55:10.718Z,91.50
2023-04-21T19:57:38.839Z,91.60
2023-04-21T20:00:09.384Z,92.00
2023-04-21T20:02:37.761Z,92.00
2023-04-21T20:05:07.384Z,92.10
2023-04-21T20:07:35.865Z,92.10
2023-04-21T20:10:06.119Z,92.20
2023-04-21T20:12:34.468Z,92.50
2023-04-21T20:15:03.023Z,92.70
2023-04-21T20:17:32.518Z,92.80
2023-04-21T20:20:01.278Z,93.00
2023-04-21T20:22:29.837Z,93.10
2023-04-21T20:24:58.304Z,93.40
2023-04-21T20:27:28.397Z,93.60
2023-04-21T20:29:56.531Z,93.90
2023-04-21T20:32:24.677Z,94.10
2023-04-21T20:34:53.662Z,94.30
2023-04-21T20:37:23.090Z,94.50
2023-04-21T20:39:51.345Z,94.40
2023-04-21T20:42:20.229Z,94.30
2023-04-21T20:44:49.719Z,94.60
2023-04-21T20:47:17.925Z,94.70
2023-04-21T20:49:47.741Z,94.80
2023-04-21T20:52:15.997Z,94.90
2023-04-21T20:54:44.349Z,95.00
2023-04-21T20:57:12.601Z,95.30
2023-04-21T20:59:41.276Z,95.30
2023-04-21T21:02:10.898Z,95.50
2023-04-21T21:04:39.213Z,95.70
2023-04-21T21:07:07.836Z,95.80
2023-04-21T21:09:36.476Z,96.00
2023-04-21T21:12:05.182Z,96.10
2023-04-21T21:14:33.287Z,96.10
2023-04-21T21:17:01.725Z,96.20
2023-04-21T21:19:31.341Z,96.50
2023-04-21T21:21:59.799Z,96.70
2023-04-21T21:24:28.854Z,96.70
2023-04-21T21:26:57.702Z,96.80
2023-04-21T21:29:26.127Z,96.60
2023-04-21T21:31:54.303Z,96.90
2023-04-21T21:34:22.704Z,96.90
2023-04-21T21:36:52.488Z,97.10
2023-04-21T21:39:20.668Z,97.30
2023-04-21T21:41:48.759Z,97.40
2023-04-21T21:44:17.189Z,97.60
2023-04-21T21:46:45.380Z,97.60
2023-04-21T21:49:13.576Z,97.90
2023-04-21T21:51:41.924Z,98.00
2023-04-21T21:54:11.546Z,98.20
2023-04-21T21:56:39.664Z,98.40
2023-04-21T21:59:08.469Z,98.30
2023-04-21T22:01:36.693Z,98.40
2023-04-21T22:04:05.108Z,98.70
2023-04-21T22:06:34.779Z,98.80
2023-04-21T22:09:03.768Z,98.80
2023-04-21T22:11:33.464Z,98.30
2023-04-21T22:14:14.542Z,99.10
2023-04-21T22:16:50.901Z,99.10
2023-04-21T22:19:20.147Z,99.10
2023-04-21T22:21:48.340Z,99.20
2023-04-21T22:24:16.916Z,99.20
2023-04-21T22:26:46.598Z,99.40
2023-04-21T22:29:14.892Z,99.50
2023-04-21T22:31:43.208Z,99.90
2023-04-21T22:34:14.943Z,99.70
2023-04-21T22:36:43.554Z,99.70
2023-04-21T22:39:11.899Z,99.60
2023-04-21T22:41:40.155Z,99.60
2023-04-21T22:44:10.166Z,99.60
2023-04-21T22:46:38.336Z,99.80
2023-04-21T22:49:06.980Z,99.80
2023-04-21T22:51:35.396Z,99.80
2023-04-21T22:54:03.476Z,99.80
2023-04-21T22:56:32.280Z,99.80
2023-04-21T22:59:00.793Z,99.70
2023-04-21T23:01:32.038Z,99.90
2023-04-21T23:04:00.579Z,99.70
2023-04-21T23:06:28.984Z,99.90
2023-04-21T23:08:57.047Z,99.90
2023-04-21T23:11:25.303Z,99.90
2023-04-21T23:13:53.504Z,99.90
2023-04-21T23:16:21.877Z,99.90
2023-04-21T23:18:51.368Z,99.90
2023-04-21T23:21:19.503Z,99.90
2023-04-21T23:23:47.916Z,99.90
2023-04-21T23:26:16.037Z,99.90
2023-04-21T23:28:44.133Z,99.90
2023-04-21T23:31:12.573Z,99.90
2023-04-21T23:33:40.676Z,99.90
2023-04-21T23:36:10.648Z,99.90
2023-04-21T23:38:38.726Z,99.90
2023-04-21T23:41:07.240Z,99.90
2023-04-21T23:43:37.202Z,99.90
2023-04-21T23:46:05.492Z,99.60
2023-04-21T23:48:34.295Z,99.90
2023-04-21T23:51:02.656Z,99.10
2023-04-21T23:53:32.164Z,99.70
2023-04-21T23:56:00.670Z,99.90
2023-04-21T23:58:28.761Z,99.90
